sensor_id;sensor_type;location;lat;lon;timestamp;P1;durP1;ratioP1;P2;durP2;ratioP2
23768;SDS011;12064;50.890;5.424;2022-10-16T00:05:42;1.55;;;0.70;;
23768;SDS011;12064;50.890;5.424;2022-10-16T00:14:36;1.02;;;0.50;;
23768;SDS011;12064;50.890;5.424;2022-10-16T00:32:22;0.43;;;0.43;;
23768;SDS011;12064;50.890;5.424;2022-10-16T00:41:16;1.17;;;0.50;;
23768;SDS011;12064;50.890;5.424;2022-10-16T00:50:08;0.93;;;0.50;;
23768;SDS011;12064;50.890;5.424;2022-10-16T00:59:27;0.80;;;0.55;;
23768;SDS011;12064;50.890;5.424;2022-10-16T01:17:52;0.50;;;0.50;;
23768;SDS011;12064;50.890;5.424;2022-10-16T01:36:21;0.77;;;0.57;;
23768;SDS011;12064;50.890;5.424;2022-10-16T01:45:18;0.82;;;0.50;;
23768;SDS011;12064;50.890;5.424;2022-10-16T01:54:25;0.82;;;0.60;;
23768;SDS011;12064;50.890;5.424;2022-10-16T02:03:22;1.20;;;0.60;;
23768;SDS011;12064;50.890;5.424;2022-10-16T02:12:35;0.60;;;0.60;;
23768;SDS011;12064;50.890;5.424;2022-10-16T02:21:29;0.93;;;0.60;;
23768;SDS011;12064;50.890;5.424;2022-10-16T02:30:50;0.60;;;0.45;;
23768;SDS011;12064;50.890;5.424;2022-10-16T02:39:48;0.73;;;0.40;;
23768;SDS011;12064;50.890;5.424;2022-10-16T02:48:39;0.67;;;0.60;;
23768;SDS011;12064;50.890;5.424;2022-10-16T02:57:29;0.60;;;0.60;;
23768;SDS011;12064;50.890;5.424;2022-10-16T03:06:21;0.73;;;0.40;;
23768;SDS011;12064;50.890;5.424;2022-10-16T03:15:14;0.77;;;0.52;;
23768;SDS011;12064;50.890;5.424;2022-10-16T03:24:05;1.90;;;0.70;;
23768;SDS011;12064;50.890;5.424;2022-10-16T03:32:55;1.33;;;0.60;;
23768;SDS011;12064;50.890;5.424;2022-10-16T03:41:46;0.73;;;0.50;;
23768;SDS011;12064;50.890;5.424;2022-10-16T03:59:58;0.50;;;0.40;;
23768;SDS011;12064;50.890;5.424;2022-10-16T04:08:55;0.57;;;0.50;;
23768;SDS011;12064;50.890;5.424;2022-10-16T04:17:46;0.40;;;0.40;;
23768;SDS011;12064;50.890;5.424;2022-10-16T04:26:37;1.27;;;0.47;;
23768;SDS011;12064;50.890;5.424;2022-10-16T04:35:28;0.63;;;0.50;;
23768;SDS011;12064;50.890;5.424;2022-10-16T04:53:31;0.65;;;0.50;;
23768;SDS011;12064;50.890;5.424;2022-10-16T05:02:24;0.50;;;0.43;;
23768;SDS011;12064;50.890;5.424;2022-10-16T05:11:15;0.70;;;0.53;;
23768;SDS011;12064;50.890;5.424;2022-10-16T05:20:06;0.57;;;0.53;;
23768;SDS011;12064;50.890;5.424;2022-10-16T05:28:57;0.40;;;0.40;;
23768;SDS011;12064;50.890;5.424;2022-10-16T05:37:47;0.77;;;0.40;;
23768;SDS011;12064;50.890;5.424;2022-10-16T05:46:41;0.60;;;0.40;;
23768;SDS011;12064;50.890;5.424;2022-10-16T05:55:32;0.40;;;0.40;;
23768;SDS011;12064;50.890;5.424;2022-10-16T06:04:22;1.13;;;0.50;;
23768;SDS011;12064;50.890;5.424;2022-10-16T06:13:13;0.82;;;0.50;;
23768;SDS011;12064;50.890;5.424;2022-10-16T06:31:20;0.43;;;0.43;;
23768;SDS011;12064;50.890;5.424;2022-10-16T06:40:17;0.40;;;0.40;;
23768;SDS011;12064;50.890;5.424;2022-10-16T06:49:08;0.50;;;0.50;;
23768;SDS011;12064;50.890;5.424;2022-10-16T06:57:58;0.40;;;0.40;;
23768;SDS011;12064;50.890;5.424;2022-10-16T07:06:49;1.83;;;0.83;;
23768;SDS011;12064;50.890;5.424;2022-10-16T07:15:41;0.77;;;0.50;;
23768;SDS011;12064;50.890;5.424;2022-10-16T07:24:32;0.47;;;0.47;;
23768;SDS011;12064;50.890;5.424;2022-10-16T07:33:25;0.60;;;0.60;;
23768;SDS011;12064;50.890;5.424;2022-10-16T07:42:16;1.40;;;0.50;;
23768;SDS011;12064;50.890;5.424;2022-10-16T07:51:06;3.40;;;0.70;;
23768;SDS011;12064;50.890;5.424;2022-10-16T07:59:57;0.65;;;0.50;;
23768;SDS011;12064;50.890;5.424;2022-10-16T08:08:57;4.43;;;0.70;;
23768;SDS011;12064;50.890;5.424;2022-10-16T08:17:59;3.10;;;0.60;;
23768;SDS011;12064;50.890;5.424;2022-10-16T08:26:54;3.13;;;0.73;;
23768;SDS011;12064;50.890;5.424;2022-10-16T08:35:54;1.10;;;0.50;;
23768;SDS011;12064;50.890;5.424;2022-10-16T08:53:57;3.08;;;0.40;;
23768;SDS011;12064;50.890;5.424;2022-10-16T09:02:52;2.70;;;0.60;;
23768;SDS011;12064;50.890;5.424;2022-10-16T09:11:53;2.97;;;0.50;;
23768;SDS011;12064;50.890;5.424;2022-10-16T09:21:41;0.88;;;0.65;;
23768;SDS011;12064;50.890;5.424;2022-10-16T09:30:15;2.95;;;0.70;;
23768;SDS011;12064;50.890;5.424;2022-10-16T09:39:09;1.50;;;0.60;;
23768;SDS011;12064;50.890;5.424;2022-10-16T09:48:09;0.77;;;0.50;;
23768;SDS011;12064;50.890;5.424;2022-10-16T09:57:05;1.55;;;0.60;;
23768;SDS011;12064;50.890;5.424;2022-10-16T10:06:03;1.77;;;0.60;;
23768;SDS011;12064;50.890;5.424;2022-10-16T10:15:16;1.02;;;0.65;;
23768;SDS011;12064;50.890;5.424;2022-10-16T10:24:12;1.88;;;0.82;;
23768;SDS011;12064;50.890;5.424;2022-10-16T10:42:48;1.13;;;0.52;;
23768;SDS011;12064;50.890;5.424;2022-10-16T11:19:44;1.35;;;0.80;;
23768;SDS011;12064;50.890;5.424;2022-10-16T11:28:41;1.13;;;0.80;;
23768;SDS011;12064;50.890;5.424;2022-10-16T11:37:38;0.63;;;0.50;;
23768;SDS011;12064;50.890;5.424;2022-10-16T11:46:35;1.13;;;0.70;;
23768;SDS011;12064;50.890;5.424;2022-10-16T11:55:45;2.03;;;0.80;;
23768;SDS011;12064;50.890;5.424;2022-10-16T12:04:41;2.30;;;1.05;;
23768;SDS011;12064;50.890;5.424;2022-10-16T12:23:16;1.55;;;0.80;;
23768;SDS011;12064;50.890;5.424;2022-10-16T12:41:25;4.75;;;1.08;;
23768;SDS011;12064;50.890;5.424;2022-10-16T12:50:35;2.10;;;1.05;;
23768;SDS011;12064;50.890;5.424;2022-10-16T13:27:15;3.20;;;1.30;;
23768;SDS011;12064;50.890;5.424;2022-10-16T13:36:22;3.03;;;1.30;;
23768;SDS011;12064;50.890;5.424;2022-10-16T13:54:57;2.55;;;1.23;;
23768;SDS011;12064;50.890;5.424;2022-10-16T14:03:48;2.97;;;1.20;;
23768;SDS011;12064;50.890;5.424;2022-10-16T14:12:39;2.08;;;1.10;;
23768;SDS011;12064;50.890;5.424;2022-10-16T14:21:33;2.45;;;1.13;;
23768;SDS011;12064;50.890;5.424;2022-10-16T14:30:25;3.13;;;1.15;;
23768;SDS011;12064;50.890;5.424;2022-10-16T14:39:20;4.35;;;1.20;;
23768;SDS011;12064;50.890;5.424;2022-10-16T14:48:16;2.63;;;1.10;;
23768;SDS011;12064;50.890;5.424;2022-10-16T14:57:22;2.83;;;1.10;;
23768;SDS011;12064;50.890;5.424;2022-10-16T15:16:01;2.58;;;1.20;;
23768;SDS011;12064;50.890;5.424;2022-10-16T15:34:38;3.10;;;1.30;;
23768;SDS011;12064;50.890;5.424;2022-10-16T15:43:29;1.97;;;1.20;;
23768;SDS011;12064;50.890;5.424;2022-10-16T15:52:22;2.20;;;0.90;;
23768;SDS011;12064;50.890;5.424;2022-10-16T16:01:13;1.93;;;1.03;;
23768;SDS011;12064;50.890;5.424;2022-10-16T16:10:04;2.23;;;0.93;;
23768;SDS011;12064;50.890;5.424;2022-10-16T16:18:56;2.80;;;1.20;;
23768;SDS011;12064;50.890;5.424;2022-10-16T16:27:46;2.37;;;1.10;;
23768;SDS011;12064;50.890;5.424;2022-10-16T16:36:37;6.57;;;1.10;;
23768;SDS011;12064;50.890;5.424;2022-10-16T16:45:34;2.15;;;1.00;;
23768;SDS011;12064;50.890;5.424;2022-10-16T16:54:25;3.85;;;1.10;;
23768;SDS011;12064;50.890;5.424;2022-10-16T17:03:16;2.05;;;1.05;;
23768;SDS011;12064;50.890;5.424;2022-10-16T17:12:06;1.95;;;1.08;;
23768;SDS011;12064;50.890;5.424;2022-10-16T17:21:02;1.73;;;0.73;;
23768;SDS011;12064;50.890;5.424;2022-10-16T17:30:06;1.60;;;0.77;;
23768;SDS011;12064;50.890;5.424;2022-10-16T18:06:54;3.17;;;0.80;;
23768;SDS011;12064;50.890;5.424;2022-10-16T18:16:02;1.88;;;0.90;;
23768;SDS011;12064;50.890;5.424;2022-10-16T18:25:01;2.20;;;0.90;;
23768;SDS011;12064;50.890;5.424;2022-10-16T18:33:54;1.35;;;0.70;;
23768;SDS011;12064;50.890;5.424;2022-10-16T18:42:48;2.05;;;0.70;;
23768;SDS011;12064;50.890;5.424;2022-10-16T18:51:39;2.00;;;0.80;;
23768;SDS011;12064;50.890;5.424;2022-10-16T19:00:32;1.85;;;0.70;;
23768;SDS011;12064;50.890;5.424;2022-10-16T19:09:23;1.10;;;0.82;;
23768;SDS011;12064;50.890;5.424;2022-10-16T19:18:14;0.80;;;0.80;;
23768;SDS011;12064;50.890;5.424;2022-10-16T19:27:08;1.60;;;0.80;;
23768;SDS011;12064;50.890;5.424;2022-10-16T19:45:15;1.13;;;0.70;;
23768;SDS011;12064;50.890;5.424;2022-10-16T19:54:09;1.10;;;0.88;;
23768;SDS011;12064;50.890;5.424;2022-10-16T20:03:01;1.20;;;0.80;;
23768;SDS011;12064;50.890;5.424;2022-10-16T20:11:55;1.65;;;0.90;;
23768;SDS011;12064;50.890;5.424;2022-10-16T20:30:17;2.08;;;1.00;;
23768;SDS011;12064;50.890;5.424;2022-10-16T20:39:09;1.03;;;0.70;;
23768;SDS011;12064;50.890;5.424;2022-10-16T20:57:16;2.70;;;0.93;;
23768;SDS011;12064;50.890;5.424;2022-10-16T21:06:08;3.13;;;1.20;;
23768;SDS011;12064;50.890;5.424;2022-10-16T21:14:59;0.85;;;0.70;;
23768;SDS011;12064;50.890;5.424;2022-10-16T21:23:53;1.55;;;0.90;;
23768;SDS011;12064;50.890;5.424;2022-10-16T21:33:01;1.30;;;0.90;;
23768;SDS011;12064;50.890;5.424;2022-10-16T21:41:52;1.25;;;0.82;;
23768;SDS011;12064;50.890;5.424;2022-10-16T21:50:48;2.05;;;0.95;;
23768;SDS011;12064;50.890;5.424;2022-10-16T21:59:39;1.20;;;0.77;;
23768;SDS011;12064;50.890;5.424;2022-10-16T22:18:02;0.80;;;0.70;;
23768;SDS011;12064;50.890;5.424;2022-10-16T22:26:52;0.80;;;0.75;;
23768;SDS011;12064;50.890;5.424;2022-10-16T22:35:43;1.33;;;0.80;;
23768;SDS011;12064;50.890;5.424;2022-10-16T22:44:36;0.90;;;0.68;;
23768;SDS011;12064;50.890;5.424;2022-10-16T22:53:27;0.70;;;0.60;;
23768;SDS011;12064;50.890;5.424;2022-10-16T23:02:18;0.82;;;0.77;;
23768;SDS011;12064;50.890;5.424;2022-10-16T23:11:12;0.80;;;0.80;;
23768;SDS011;12064;50.890;5.424;2022-10-16T23:20:02;0.90;;;0.70;;
23768;SDS011;12064;50.890;5.424;2022-10-16T23:28:56;2.30;;;0.88;;
23768;SDS011;12064;50.890;5.424;2022-10-16T23:37:48;1.42;;;0.77;;
23768;SDS011;12064;50.890;5.424;2022-10-16T23:46:52;1.10;;;0.93;;
23768;SDS011;12064;50.890;5.424;2022-10-16T23:55:43;2.47;;;1.00;;
